Time;durP1;ratioP1;P1;durP2;ratioP2;P2;SDS_P1;SDS_P2;PMS_P1;PMS_P2;Temp;Humidity;BMP_temperature;BMP_pressure;BME280_temperature;BME280_humidity;BME280_pressure;Samples;Min_cycle;Max_cycle;Signal;HPM_P1;HPM_P2
2023/01/16 00:01:55;;;;;;;0.20;0.20;;;5.60;99.90;;;;;;5061442;28;20054;-68
2023/01/16 00:04:21;;;;;;;0.28;0.28;;;5.60;99.90;;;;;;5043927;28;20041;-68
2023/01/16 00:06:47;;;;;;;0.10;0.10;;;5.60;99.90;;;;;;5039638;28;20053;-68
2023/01/16 00:09:13;;;;;;;0.45;0.45;;;5.60;99.90;;;;;;5046357;28;20060;-68
2023/01/16 00:11:38;;;;;;;0.20;0.20;;;5.60;99.90;;;;;;5042091;28;20052;-68
2023/01/16 00:14:05;;;;;;;0.15;0.15;;;5.60;99.90;;;;;;5030038;28;20047;-68
2023/01/16 00:16:32;;;;;;;0.10;0.10;;;5.60;99.90;;;;;;5063560;28;20071;-68
2023/01/16 00:18:58;;;;;;;0.32;0.32;;;5.60;99.90;;;;;;5038911;28;20123;-68
2023/01/16 00:21:25;;;;;;;0.10;0.10;;;5.60;99.90;;;;;;5045757;28;20128;-68
2023/01/16 00:23:55;;;;;;;0.10;0.10;;;5.60;99.90;;;;;;5041914;28;20047;-68
2023/01/16 00:26:21;;;;;;;0.10;0.10;;;5.60;99.90;;;;;;5027010;28;20076;-68
2023/01/16 00:28:47;;;;;;;0.10;0.10;;;5.50;99.90;;;;;;5054747;28;20040;-67
2023/01/16 00:31:12;;;;;;;0.10;0.10;;;5.50;99.90;;;;;;5046898;28;20040;-68
2023/01/16 00:33:38;;;;;;;0.70;0.70;;;5.50;99.90;;;;;;5061278;28;20488;-68
2023/01/16 00:36:04;;;;;;;0.10;0.10;;;5.50;99.90;;;;;;5056617;28;20041;-68
2023/01/16 00:38:31;;;;;;;0.10;0.10;;;5.50;99.90;;;;;;5044752;28;20087;-68
2023/01/16 00:40:56;;;;;;;0.20;0.20;;;5.50;99.90;;;;;;5036218;28;20045;-67
2023/01/16 00:43:22;;;;;;;0.20;0.20;;;5.50;99.90;;;;;;5026139;28;20052;-68
2023/01/16 00:45:49;;;;;;;0.28;0.20;;;5.40;99.90;;;;;;5036425;28;20079;-68
2023/01/16 00:48:14;;;;;;;0.10;0.10;;;5.50;99.90;;;;;;5059852;28;20055;-68
2023/01/16 00:50:41;;;;;;;0.28;0.28;;;5.50;99.90;;;;;;5063055;28;20052;-68
2023/01/16 00:53:07;;;;;;;0.10;0.10;;;5.40;99.90;;;;;;5060634;28;20132;-68
2023/01/16 00:55:35;;;;;;;0.10;0.10;;;5.40;99.90;;;;;;5041677;28;20053;-68
2023/01/16 00:58:00;;;;;;;0.10;0.10;;;5.40;99.90;;;;;;5062997;28;20495;-68
2023/01/16 01:00:26;;;;;;;0.10;0.10;;;5.50;99.90;;;;;;5064031;28;20060;-68
2023/01/16 01:02:52;;;;;;;0.10;0.10;;;5.50;99.90;;;;;;5028519;28;20044;-68
2023/01/16 01:05:18;;;;;;;0.85;0.85;;;5.50;99.90;;;;;;5041574;28;20037;-68
2023/01/16 01:07:43;;;;;;;0.10;0.10;;;5.60;99.90;;;;;;5049611;28;20049;-68
2023/01/16 01:10:09;;;;;;;0.10;0.10;;;5.50;99.90;;;;;;5019055;28;20059;-68
2023/01/16 01:12:35;;;;;;;0.10;0.10;;;5.60;99.90;;;;;;5043023;28;20048;-68
2023/01/16 01:15:01;;;;;;;0.20;0.20;;;5.50;99.90;;;;;;5044592;28;20522;-68
2023/01/16 01:17:27;;;;;;;0.10;0.10;;;5.50;99.90;;;;;;5040014;28;20048;-68
2023/01/16 01:19:52;;;;;;;0.50;0.50;;;5.60;99.90;;;;;;5045228;28;20487;-68
2023/01/16 01:22:18;;;;;;;0.10;0.10;;;5.60;99.90;;;;;;5046097;28;20086;-68
2023/01/16 01:24:47;;;;;;;0.20;0.20;;;5.60;99.90;;;;;;5044761;28;20373;-68
2023/01/16 01:27:12;;;;;;;0.10;0.10;;;5.60;99.90;;;;;;5059758;28;20044;-68
2023/01/16 01:29:38;;;;;;;0.20;0.20;;;5.60;99.90;;;;;;5061995;28;20047;-68
2023/01/16 01:32:05;;;;;;;0.10;0.10;;;5.60;99.90;;;;;;5050564;28;20699;-68
2023/01/16 01:34:33;;;;;;;0.10;0.10;;;5.60;99.90;;;;;;5034267;28;20396;-68
2023/01/16 01:37:04;;;;;;;0.20;0.20;;;5.60;99.90;;;;;;5057715;28;20052;-68
2023/01/16 01:39:30;;;;;;;0.10;0.10;;;5.60;99.90;;;;;;5062565;28;20044;-68
2023/01/16 01:42:41;;;;;;;0.10;0.10;;;5.60;99.90;;;;;;5046251;28;20480;-68
2023/01/16 01:45:15;;;;;;;0.17;0.17;;;5.60;99.90;;;;;;5047624;28;20052;-68
2023/01/16 01:47:48;;;;;;;0.10;0.10;;;5.50;99.90;;;;;;5049592;28;20053;-68
2023/01/16 01:50:42;;;;;;;0.20;0.20;;;5.50;99.90;;;;;;5067681;28;20131;-68
2023/01/16 01:53:32;;;;;;;0.10;0.10;;;5.50;99.90;;;;;;5044991;28;20370;-68
2023/01/16 01:56:07;;;;;;;0.10;0.10;;;5.50;99.90;;;;;;5050734;28;20040;-67
2023/01/16 01:58:33;;;;;;;0.20;0.20;;;5.50;99.90;;;;;;5057001;28;20064;-68
2023/01/16 02:01:00;;;;;;;0.28;0.28;;;5.50;99.90;;;;;;5045209;28;20171;-68
2023/01/16 02:03:46;;;;;;;0.10;0.10;;;5.50;99.90;;;;;;5029073;28;20064;-68
2023/01/16 02:06:25;;;;;;;0.30;0.30;;;5.50;99.90;;;;;;5047946;28;20124;-68
2023/01/16 02:08:53;;;;;;;0.95;0.95;;;5.40;99.90;;;;;;5046751;28;20546;-68
2023/01/16 02:11:25;;;;;;;0.10;0.10;;;5.40;99.90;;;;;;5046308;28;20055;-68
2023/01/16 02:14:05;;;;;;;3.00;2.30;;;5.40;99.90;;;;;;5066018;28;20033;-68
2023/01/16 02:19:21;;;;;;;;;;;5.50;99.90;;;;;;5055933;28;20508;-68
2023/01/16 02:22:02;;;;;;;0.20;0.20;;;5.50;99.90;;;;;;5055255;28;20062;-68
2023/01/16 02:25:08;;;;;;;0.10;0.10;;;5.50;99.90;;;;;;5062157;28;20076;-68
2023/01/16 02:27:55;;;;;;;0.05;0.05;;;5.40;99.90;;;;;;5027537;28;20048;-68
2023/01/16 02:30:46;;;;;;;0.10;0.10;;;5.50;99.90;;;;;;5047508;28;20059;-68
2023/01/16 02:33:48;;;;;;;0.10;0.10;;;5.40;99.90;;;;;;5048800;28;20626;-67
2023/01/16 02:36:44;;;;;;;0.10;0.10;;;5.40;99.90;;;;;;5062631;28;20155;-68
2023/01/16 02:39:18;;;;;;;0.10;0.10;;;5.40;99.90;;;;;;5031672;28;20045;-68
2023/01/16 02:41:52;;;;;;;0.20;0.20;;;5.40;99.90;;;;;;5055553;28;20632;-68
2023/01/16 02:44:39;;;;;;;0.10;0.10;;;5.40;99.90;;;;;;5044006;28;20665;-68
2023/01/16 02:47:38;;;;;;;0.10;0.10;;;5.40;99.90;;;;;;5027999;28;20049;-67
2023/01/16 02:50:27;;;;;;;0.57;0.57;;;5.40;99.90;;;;;;5046417;28;20131;-68
2023/01/16 02:53:00;;;;;;;0.10;0.10;;;5.30;99.90;;;;;;5061355;28;20048;-68
2023/01/16 02:55:33;;;;;;;0.10;0.10;;;5.30;99.90;;;;;;5027584;28;20041;-68
2023/01/16 02:58:05;;;;;;;0.10;0.10;;;5.30;99.90;;;;;;5028988;28;20421;-68
2023/01/16 03:00:34;;;;;;;0.10;0.10;;;5.30;99.90;;;;;;5047631;28;20063;-68
2023/01/16 03:03:00;;;;;;;1.38;0.85;;;5.20;99.90;;;;;;5035057;28;20044;-68
2023/01/16 03:05:31;;;;;;;0.00;0.00;;;5.10;99.90;;;;;;5043137;28;20033;-68
2023/01/16 03:08:31;;;;;;;0.10;0.10;;;5.20;99.90;;;;;;5064132;28;20068;-68
2023/01/16 03:11:08;;;;;;;0.30;0.30;;;5.10;99.90;;;;;;5048755;28;20070;-67
2023/01/16 03:14:01;;;;;;;0.10;0.10;;;5.00;99.90;;;;;;5049494;28;20099;-68
2023/01/16 03:16:52;;;;;;;0.10;0.10;;;4.90;99.90;;;;;;5045587;28;20575;-67
2023/01/16 03:19:57;;;;;;;0.10;0.10;;;4.90;99.90;;;;;;5028388;28;20094;-68
2023/01/16 03:22:54;;;;;;;0.10;0.10;;;4.80;99.90;;;;;;5042221;28;20052;-68
2023/01/16 03:25:41;;;;;;;0.10;0.10;;;4.90;99.90;;;;;;5041123;28;20626;-68
2023/01/16 03:28:35;;;;;;;0.45;0.45;;;4.80;99.90;;;;;;5046190;28;20515;-68
2023/01/16 03:31:14;;;;;;;0.13;0.13;;;4.70;99.90;;;;;;5044642;28;20088;-68
2023/01/16 03:33:58;;;;;;;0.10;0.10;;;4.70;99.90;;;;;;5027975;28;20048;-68
2023/01/16 03:36:38;;;;;;;0.10;0.10;;;4.70;99.90;;;;;;5059031;28;20182;-68
2023/01/16 03:39:08;;;;;;;0.20;0.20;;;4.70;99.90;;;;;;5044734;28;20049;-68
2023/01/16 03:41:36;;;;;;;0.10;0.10;;;4.70;99.90;;;;;;5051203;28;20471;-68
2023/01/16 03:44:08;;;;;;;0.10;0.10;;;4.80;99.90;;;;;;5026710;28;20041;-67
2023/01/16 03:46:41;;;;;;;0.10;0.10;;;4.80;99.90;;;;;;5045111;28;20496;-68
2023/01/16 03:49:13;;;;;;;0.10;0.10;;;4.90;99.90;;;;;;5027267;28;20125;-68
2023/01/16 03:51:46;;;;;;;0.10;0.10;;;4.90;99.90;;;;;;5030424;28;20067;-67
2023/01/16 03:54:23;;;;;;;0.10;0.10;;;4.90;99.90;;;;;;5045781;28;20056;-68
2023/01/16 03:56:56;;;;;;;0.10;0.10;;;4.90;99.90;;;;;;5043387;28;20052;-68
2023/01/16 03:59:25;;;;;;;0.10;0.10;;;4.90;99.90;;;;;;5045902;28;20048;-68
2023/01/16 04:01:54;;;;;;;0.10;0.10;;;5.00;99.90;;;;;;5042614;28;20057;-67
2023/01/16 04:04:38;;;;;;;0.20;0.20;;;5.00;99.90;;;;;;5049426;28;20187;-68
2023/01/16 04:07:11;;;;;;;0.10;0.10;;;5.00;99.90;;;;;;5044495;28;20071;-68
2023/01/16 04:10:09;;;;;;;0.20;0.20;;;5.00;99.90;;;;;;5064383;28;20434;-68
2023/01/16 04:12:43;;;;;;;6.93;1.63;;;5.00;99.90;;;;;;5020581;28;20049;-68
2023/01/16 04:15:09;;;;;;;0.25;0.25;;;5.10;99.90;;;;;;5065141;28;20047;-67
2023/01/16 04:17:37;;;;;;;0.10;0.10;;;5.00;99.90;;;;;;5044871;28;20041;-67
2023/01/16 04:20:05;;;;;;;0.10;0.10;;;5.00;99.90;;;;;;5063257;28;20051;-67
2023/01/16 04:22:31;;;;;;;0.82;0.82;;;5.10;99.90;;;;;;5062995;28;20072;-67
2023/01/16 04:25:00;;;;;;;0.10;0.10;;;5.10;99.90;;;;;;5065198;28;20044;-68
2023/01/16 04:27:25;;;;;;;0.10;0.10;;;5.10;99.90;;;;;;5062550;28;20053;-68
2023/01/16 04:29:51;;;;;;;0.10;0.10;;;5.20;99.90;;;;;;5063765;28;20044;-67
2023/01/16 04:32:17;;;;;;;0.10;0.10;;;5.20;99.90;;;;;;5063887;28;20045;-67
2023/01/16 04:34:43;;;;;;;0.30;0.30;;;5.20;99.90;;;;;;5044837;28;20059;-68
2023/01/16 04:37:12;;;;;;;0.93;0.90;;;5.20;99.90;;;;;;5063436;28;20049;-67
2023/01/16 04:39:38;;;;;;;0.10;0.10;;;5.30;99.90;;;;;;5046115;28;20044;-68
2023/01/16 04:42:04;;;;;;;0.10;0.10;;;5.30;99.90;;;;;;5063262;28;20519;-67
2023/01/16 04:44:29;;;;;;;1.45;0.85;;;5.30;99.90;;;;;;5044354;28;20045;-68
2023/01/16 04:46:55;;;;;;;0.17;0.17;;;5.30;99.90;;;;;;5065014;28;20037;-67
2023/01/16 04:49:20;;;;;;;0.13;0.13;;;5.30;99.90;;;;;;5060996;28;20475;-68
2023/01/16 04:51:46;;;;;;;0.40;0.40;;;5.30;99.90;;;;;;5056423;28;20041;-68
2023/01/16 04:54:17;;;;;;;0.10;0.10;;;5.20;99.90;;;;;;5044811;28;20080;-67
2023/01/16 04:56:42;;;;;;;0.03;0.03;;;5.30;99.90;;;;;;5054343;28;20048;-68
2023/01/16 04:59:09;;;;;;;0.10;0.10;;;5.30;99.90;;;;;;5063801;28;20048;-68
2023/01/16 05:01:37;;;;;;;0.10;0.10;;;5.30;99.90;;;;;;5060622;28;20040;-68
2023/01/16 05:04:04;;;;;;;0.30;0.30;;;5.30;99.90;;;;;;5044731;28;20110;-68
2023/01/16 05:06:30;;;;;;;0.10;0.10;;;5.30;99.90;;;;;;5059514;28;20095;-68
2023/01/16 05:08:56;;;;;;;0.50;0.50;;;5.30;99.90;;;;;;5061633;28;20084;-68
2023/01/16 05:11:22;;;;;;;0.10;0.10;;;5.30;99.90;;;;;;5063833;28;20083;-68
2023/01/16 05:13:47;;;;;;;0.10;0.10;;;5.30;99.90;;;;;;5060785;28;20052;-68
2023/01/16 05:16:13;;;;;;;0.10;0.10;;;5.20;99.90;;;;;;5040642;28;20052;-68
2023/01/16 05:18:38;;;;;;;0.10;0.10;;;5.30;99.90;;;;;;5025563;28;20088;-68
2023/01/16 05:21:04;;;;;;;0.10;0.10;;;5.20;99.90;;;;;;5045224;28;20041;-67
2023/01/16 05:23:33;;;;;;;0.10;0.10;;;5.20;99.90;;;;;;5026938;28;20385;-68
2023/01/16 05:25:59;;;;;;;0.20;0.20;;;5.30;99.90;;;;;;5064430;28;20044;-68
2023/01/16 05:28:25;;;;;;;0.32;0.32;;;5.20;99.90;;;;;;5061814;28;20096;-68
2023/01/16 05:30:50;;;;;;;0.15;0.15;;;5.20;99.90;;;;;;5044202;28;20758;-68
2023/01/16 05:33:16;;;;;;;0.20;0.20;;;5.20;99.90;;;;;;5064363;28;20400;-68
2023/01/16 05:35:42;;;;;;;0.10;0.10;;;5.20;99.90;;;;;;5059879;28;20392;-68
2023/01/16 05:38:07;;;;;;;0.25;0.25;;;5.20;99.90;;;;;;5043951;28;20091;-68
2023/01/16 05:40:33;;;;;;;11.20;1.55;;;5.10;99.90;;;;;;5062992;28;20036;-68
2023/01/16 05:42:59;;;;;;;0.10;0.10;;;5.10;99.90;;;;;;5040534;28;20084;-67
2023/01/16 05:45:24;;;;;;;0.10;0.10;;;5.10;99.90;;;;;;5042683;28;20128;-68
2023/01/16 05:47:50;;;;;;;0.10;0.10;;;5.10;99.90;;;;;;5043849;28;20107;-67
2023/01/16 05:50:15;;;;;;;0.20;0.20;;;5.10;99.90;;;;;;5048643;28;20036;-67
2023/01/16 05:52:41;;;;;;;0.10;0.10;;;5.10;99.90;;;;;;5053122;28;20041;-68
2023/01/16 05:55:07;;;;;;;0.10;0.10;;;5.00;99.90;;;;;;5051778;28;20051;-67
2023/01/16 05:57:32;;;;;;;0.10;0.10;;;5.00;99.90;;;;;;5044138;28;20088;-68
2023/01/16 05:59:58;;;;;;;0.10;0.10;;;5.00;99.90;;;;;;5056109;28;20518;-68
2023/01/16 06:02:24;;;;;;;0.52;0.52;;;5.00;99.90;;;;;;5036811;28;20447;-68
2023/01/16 06:04:49;;;;;;;0.43;0.43;;;5.00;99.90;;;;;;5023412;28;20166;-68
2023/01/16 06:07:15;;;;;;;1.85;1.00;;;5.00;99.90;;;;;;5062245;28;20553;-68
2023/01/16 06:09:43;;;;;;;1.35;1.25;;;5.00;99.90;;;;;;5062131;28;20151;-68
2023/01/16 06:12:16;;;;;;;0.20;0.20;;;5.00;99.90;;;;;;5044974;28;20063;-66
2023/01/16 06:14:42;;;;;;;0.30;0.30;;;5.00;99.90;;;;;;5045848;28;20095;-67
2023/01/16 06:17:07;;;;;;;0.10;0.10;;;5.00;99.90;;;;;;5025990;28;20404;-68
2023/01/16 06:19:33;;;;;;;0.22;0.22;;;5.00;99.90;;;;;;5040390;28;20052;-67
2023/01/16 06:21:59;;;;;;;0.57;0.57;;;5.00;99.90;;;;;;5044451;28;20033;-67
2023/01/16 06:24:24;;;;;;;0.47;0.47;;;5.00;99.90;;;;;;5066247;28;20067;-67
2023/01/16 06:26:50;;;;;;;0.20;0.20;;;5.00;99.90;;;;;;5046961;28;20044;-68
2023/01/16 06:29:15;;;;;;;0.10;0.10;;;5.00;99.90;;;;;;5067080;28;20053;-67
2023/01/16 06:31:41;;;;;;;0.20;0.20;;;5.00;99.90;;;;;;5046590;28;20498;-67
2023/01/16 06:34:06;;;;;;;1.85;1.08;;;5.00;99.90;;;;;;5065624;28;20465;-67
2023/01/16 06:36:32;;;;;;;0.20;0.20;;;5.00;99.90;;;;;;5049757;28;20037;-67
2023/01/16 06:39:01;;;;;;;0.20;0.20;;;5.00;99.90;;;;;;5066760;28;20044;-68
2023/01/16 06:41:26;;;;;;;0.52;0.52;;;4.90;99.90;;;;;;5064626;28;20036;-68
2023/01/16 06:43:52;;;;;;;0.52;0.52;;;4.90;99.90;;;;;;5065807;28;20059;-67
2023/01/16 06:46:17;;;;;;;0.30;0.30;;;4.90;99.90;;;;;;5030937;28;20479;-68
2023/01/16 06:48:43;;;;;;;0.55;0.43;;;4.90;99.90;;;;;;5047765;28;20403;-67
2023/01/16 06:51:09;;;;;;;0.10;0.10;;;4.90;99.90;;;;;;5064503;28;20048;-67
2023/01/16 06:53:36;;;;;;;0.20;0.20;;;4.80;99.90;;;;;;5065164;28;20052;-67
2023/01/16 06:56:02;;;;;;;0.30;0.30;;;4.80;99.90;;;;;;5064927;28;20048;-67
2023/01/16 06:58:28;;;;;;;0.63;0.63;;;4.80;99.90;;;;;;5047770;28;20059;-68
2023/01/16 07:00:54;;;;;;;0.30;0.30;;;4.80;99.90;;;;;;5065899;28;20040;-67
2023/01/16 07:03:20;;;;;;;1.65;1.55;;;4.80;99.90;;;;;;5065070;28;20043;-68
2023/01/16 07:05:46;;;;;;;0.10;0.10;;;4.80;99.90;;;;;;5055895;28;20107;-68
2023/01/16 07:08:12;;;;;;;0.10;0.10;;;4.70;99.90;;;;;;5044861;28;20053;-68
2023/01/16 07:10:38;;;;;;;0.20;0.20;;;4.70;99.90;;;;;;5058916;28;20041;-68
2023/01/16 07:13:03;;;;;;;0.20;0.20;;;4.70;99.90;;;;;;5041980;28;20048;-68
2023/01/16 07:23:54;;;;;;;0.10;0.10;;;4.80;99.90;;;;;;5062319;28;20127;-68
2023/01/16 07:26:22;;;;;;;0.47;0.47;;;4.80;99.90;;;;;;5063332;28;20045;-68
2023/01/16 07:28:49;;;;;;;0.10;0.10;;;4.80;99.90;;;;;;5060119;28;20056;-68
2023/01/16 07:31:15;;;;;;;0.25;0.25;;;4.80;99.90;;;;;;5064581;28;20055;-68
2023/01/16 07:33:41;;;;;;;0.30;0.30;;;4.70;99.90;;;;;;5047571;28;20115;-67
2023/01/16 07:36:07;;;;;;;0.30;0.30;;;4.80;99.90;;;;;;5041645;28;20044;-68
2023/01/16 07:38:32;;;;;;;17.52;1.83;;;4.70;99.90;;;;;;5060442;28;20067;-68
2023/01/16 07:40:58;;;;;;;0.57;0.57;;;4.80;99.90;;;;;;5010950;28;20365;-67
2023/01/16 07:43:24;;;;;;;0.52;0.52;;;4.70;99.90;;;;;;5032562;28;20047;-68
2023/01/16 07:45:52;;;;;;;0.10;0.10;;;4.80;99.90;;;;;;5060543;28;20118;-69
2023/01/16 07:48:24;;;;;;;0.10;0.10;;;4.80;99.90;;;;;;5065777;28;20047;-69
2023/01/16 07:50:55;;;;;;;0.10;0.10;;;4.80;99.90;;;;;;5063347;28;20032;-68
2023/01/16 07:53:22;;;;;;;0.17;0.17;;;4.70;99.90;;;;;;5047345;28;20040;-69
2023/01/16 07:55:53;;;;;;;0.30;0.30;;;4.80;99.90;;;;;;5064152;28;20076;-68
2023/01/16 07:58:19;;;;;;;0.50;0.50;;;4.70;99.90;;;;;;5059047;28;20203;-68
2023/01/16 08:00:45;;;;;;;0.20;0.20;;;4.70;99.90;;;;;;5055299;28;20539;-68
2023/01/16 08:03:11;;;;;;;0.10;0.10;;;4.70;99.90;;;;;;5053596;28;20123;-68
2023/01/16 08:05:37;;;;;;;1.20;1.20;;;4.70;99.90;;;;;;5053759;28;20052;-68
2023/01/16 08:08:03;;;;;;;0.10;0.10;;;4.70;99.90;;;;;;5051255;28;20056;-68
2023/01/16 08:10:29;;;;;;;3.83;0.73;;;4.70;99.90;;;;;;5032501;28;20620;-68
2023/01/16 08:12:54;;;;;;;0.10;0.10;;;4.70;99.90;;;;;;5036734;28;20072;-67
2023/01/16 08:15:20;;;;;;;0.47;0.47;;;4.80;99.90;;;;;;5042205;28;20048;-68
2023/01/16 08:17:46;;;;;;;0.10;0.10;;;4.80;99.90;;;;;;5063622;28;20198;-68
2023/01/16 08:20:11;;;;;;;0.20;0.20;;;4.80;99.90;;;;;;5045501;28;20502;-68
2023/01/16 08:22:44;;;;;;;0.80;0.80;;;4.80;99.90;;;;;;5062597;28;20140;-68
2023/01/16 08:25:10;;;;;;;0.30;0.30;;;4.80;99.90;;;;;;5026715;28;20431;-68
2023/01/16 08:27:35;;;;;;;0.13;0.13;;;4.80;99.90;;;;;;5042185;28;20040;-68
2023/01/16 08:30:01;;;;;;;1.35;0.98;;;4.80;99.90;;;;;;5063928;28;20052;-68
2023/01/16 08:32:27;;;;;;;0.13;0.13;;;4.80;99.90;;;;;;5046211;28;20040;-68
2023/01/16 08:34:52;;;;;;;0.32;0.32;;;4.80;99.90;;;;;;5043153;28;20076;-67
2023/01/16 08:37:18;;;;;;;0.13;0.13;;;4.80;99.90;;;;;;5044547;28;20076;-68
2023/01/16 08:39:43;;;;;;;0.00;0.00;;;4.90;99.90;;;;;;5045675;28;20048;-68
2023/01/16 08:53:10;;;;;;;0.75;0.73;;;4.90;99.90;;;;;;5064204;28;20090;-68
2023/01/16 08:55:35;;;;;;;0.10;0.10;;;4.90;99.90;;;;;;5040681;28;20063;-68
2023/01/16 08:58:01;;;;;;;0.10;0.10;;;5.00;99.90;;;;;;5044321;28;20431;-68
2023/01/16 09:00:28;;;;;;;0.75;0.75;;;5.00;99.90;;;;;;5043401;28;20105;-68
2023/01/16 09:02:57;;;;;;;0.10;0.10;;;5.10;99.90;;;;;;5028587;28;20045;-68
2023/01/16 09:05:22;;;;;;;0.30;0.30;;;5.00;99.90;;;;;;5041607;28;20443;-68
2023/01/16 09:07:48;;;;;;;0.10;0.10;;;5.00;99.90;;;;;;5042497;28;20054;-69
2023/01/16 09:10:14;;;;;;;0.10;0.10;;;5.10;99.90;;;;;;5063392;28;20126;-68
2023/01/16 09:15:24;;;;;;;0.25;0.25;;;5.10;99.90;;;;;;5045567;28;20127;-68
2023/01/16 09:17:50;;;;;;;0.85;0.85;;;5.10;99.90;;;;;;5045025;28;20040;-68
2023/01/16 09:20:16;;;;;;;0.32;0.32;;;5.10;99.90;;;;;;5058292;28;20135;-68
2023/01/16 09:22:42;;;;;;;0.35;0.35;;;5.10;99.90;;;;;;5043368;28;20045;-67
2023/01/16 09:25:08;;;;;;;7.22;2.28;;;5.10;99.90;;;;;;5043610;28;20140;-67
2023/01/16 09:27:34;;;;;;;0.10;0.10;;;5.10;99.90;;;;;;5044225;28;20041;-67
2023/01/16 09:29:59;;;;;;;0.20;0.20;;;5.10;99.90;;;;;;5040105;28;20091;-67
2023/01/16 09:32:27;;;;;;;1.70;1.60;;;5.20;99.90;;;;;;5055594;28;20032;-67
2023/01/16 09:34:52;;;;;;;0.13;0.13;;;5.10;99.90;;;;;;5027892;28;20079;-67
2023/01/16 09:37:18;;;;;;;0.10;0.10;;;5.10;99.90;;;;;;5063425;28;20496;-67
2023/01/16 09:39:44;;;;;;;2.28;1.55;;;5.10;99.90;;;;;;5044306;28;20083;-68
2023/01/16 09:45:29;;;;;;;0.82;0.82;;;5.10;99.90;;;;;;5062693;28;20041;-67
2023/01/16 09:48:00;;;;;;;0.10;0.10;;;5.20;99.90;;;;;;5062667;28;20531;-67
2023/01/16 09:50:29;;;;;;;9.10;1.60;;;5.20;99.90;;;;;;5032099;28;20479;-67
2023/01/16 09:58:37;;;;;;;0.10;0.10;;;5.20;99.90;;;;;;5047985;28;20061;-68
2023/01/16 10:01:27;;;;;;;0.10;0.10;;;5.20;99.90;;;;;;5047122;28;20048;-68
2023/01/16 10:03:57;;;;;;;0.10;0.10;;;5.20;99.90;;;;;;5061548;28;20056;-68
2023/01/16 10:06:29;;;;;;;0.10;0.10;;;5.20;99.90;;;;;;5043036;28;20484;-68
2023/01/16 10:09:18;;;;;;;0.10;0.10;;;5.20;99.90;;;;;;5059913;28;20805;-68
2023/01/16 10:11:50;;;;;;;0.10;0.10;;;5.20;99.90;;;;;;5047012;28;20053;-68
2023/01/16 10:14:44;;;;;;;1.38;1.25;;;5.20;99.90;;;;;;5064034;28;20036;-68
2023/01/16 10:17:19;;;;;;;0.20;0.20;;;5.20;99.90;;;;;;5043698;28;20102;-68
2023/01/16 10:20:07;;;;;;;1.38;1.27;;;5.20;99.90;;;;;;5054747;28;20051;-68
2023/01/16 10:23:03;;;;;;;0.10;0.10;;;5.20;99.90;;;;;;5018093;28;20590;-68
2023/01/16 10:25:57;;;;;;;0.20;0.20;;;5.20;99.90;;;;;;5041893;28;20045;-68
2023/01/16 10:28:42;;;;;;;;;;;5.20;99.90;;;;;;5058523;28;20515;-67
2023/01/16 10:31:20;;;;;;;0.20;0.20;;;5.10;99.90;;;;;;5030177;28;20010;-66
2023/01/16 10:34:00;;;;;;;0.10;0.10;;;5.20;99.90;;;;;;5054133;28;20049;-67
2023/01/16 10:36:34;;;;;;;0.10;0.10;;;5.10;99.90;;;;;;5044038;28;20483;-66
2023/01/16 10:39:01;;;;;;;0.10;0.10;;;5.10;99.90;;;;;;5028007;28;20116;-67
2023/01/16 10:50:20;;;;;;;0.10;0.10;;;5.00;99.90;;;;;;5067244;28;20060;-68
2023/01/16 10:52:47;;;;;;;0.10;0.10;;;4.90;99.90;;;;;;5062763;28;20506;-68
2023/01/16 10:55:14;;;;;;;0.20;0.20;;;4.90;99.90;;;;;;5042793;28;20149;-68
2023/01/16 10:57:47;;;;;;;0.10;0.10;;;4.90;99.90;;;;;;5034589;28;20044;-68
2023/01/16 11:00:25;;;;;;;0.10;0.10;;;4.90;99.90;;;;;;5058496;28;20029;-68
2023/01/16 11:02:52;;;;;;;0.10;0.10;;;4.90;99.90;;;;;;5047141;28;20129;-67
2023/01/16 11:05:33;;;;;;;0.15;0.15;;;4.90;99.90;;;;;;5040601;28;20033;-68
2023/01/16 11:08:10;;;;;;;0.10;0.10;;;4.90;99.90;;;;;;5032753;28;20067;-67
2023/01/16 11:10:37;;;;;;;0.10;0.10;;;4.90;99.90;;;;;;5057545;28;20095;-68
2023/01/16 11:19:31;;;;;;;0.05;0.05;;;4.80;99.90;;;;;;5038008;28;20516;-68
2023/01/16 11:22:07;;;;;;;0.10;0.10;;;4.80;99.90;;;;;;5044100;28;20044;-68
2023/01/16 11:24:35;;;;;;;0.10;0.10;;;4.70;99.90;;;;;;5048369;28;20054;-68
2023/01/16 11:27:05;;;;;;;0.15;0.15;;;4.70;99.90;;;;;;5054589;28;20105;-68
2023/01/16 11:29:38;;;;;;;0.10;0.10;;;4.70;99.90;;;;;;5044885;28;20563;-68
2023/01/16 11:32:07;;;;;;;0.20;0.20;;;4.70;99.90;;;;;;5063207;28;20082;-68
2023/01/16 11:34:33;;;;;;;0.10;0.10;;;4.60;99.90;;;;;;5063884;28;20044;-68
2023/01/16 11:37:02;;;;;;;0.10;0.10;;;4.50;99.90;;;;;;5063176;28;20048;-68
2023/01/16 11:39:31;;;;;;;0.10;0.10;;;4.60;99.90;;;;;;5064914;28;20041;-68
2023/01/16 11:41:59;;;;;;;0.10;0.10;;;4.50;99.90;;;;;;5043686;28;20041;-68
2023/01/16 11:47:22;;;;;;;1.03;0.93;;;4.60;99.90;;;;;;5064408;28;20612;-68
2023/01/16 11:49:50;;;;;;;0.10;0.10;;;4.50;99.90;;;;;;5045978;28;20318;-68
2023/01/16 11:52:28;;;;;;;0.10;0.10;;;4.60;99.90;;;;;;5064177;28;20478;-68
2023/01/16 11:55:00;;;;;;;0.10;0.10;;;4.60;99.90;;;;;;5047617;28;20051;-68
2023/01/16 11:57:32;;;;;;;0.10;0.10;;;4.60;99.90;;;;;;5062151;28;20171;-68
2023/01/16 12:00:16;;;;;;;0.32;0.32;;;4.50;99.90;;;;;;5047624;28;20049;-68
2023/01/16 12:03:09;;;;;;;0.10;0.10;;;4.60;99.90;;;;;;5060128;28;20071;-67
2023/01/16 12:05:59;;;;;;;0.80;0.80;;;4.60;99.90;;;;;;5039516;28;20079;-68
2023/01/16 12:08:31;;;;;;;0.10;0.10;;;4.60;99.90;;;;;;5063540;28;20131;-68
2023/01/16 12:11:02;;;;;;;0.10;0.10;;;4.50;99.90;;;;;;5046059;28;20052;-68
2023/01/16 12:14:17;;;;;;;0.10;0.10;;;4.60;99.90;;;;;;5045521;28;20075;-68
2023/01/16 12:16:54;;;;;;;0.10;0.10;;;4.60;99.90;;;;;;5050457;28;20049;-68
2023/01/16 12:19:53;;;;;;;0.10;0.10;;;4.60;99.90;;;;;;5056736;28;20059;-68
2023/01/16 12:22:49;;;;;;;0.10;0.10;;;4.60;99.90;;;;;;5044495;28;20134;-67
2023/01/16 12:25:26;;;;;;;0.10;0.10;;;4.60;99.90;;;;;;5061461;28;20441;-67
2023/01/16 12:28:16;;;;;;;1.45;1.15;;;4.60;99.90;;;;;;5053790;28;20036;-68
2023/01/16 12:30:57;;;;;;;0.10;0.10;;;4.50;99.90;;;;;;5050831;28;20127;-67
2023/01/16 12:33:35;;;;;;;0.10;0.10;;;4.50;99.90;;;;;;5039474;28;20413;-67
2023/01/16 12:36:06;;;;;;;0.10;0.10;;;4.50;99.90;;;;;;5062017;28;20041;-68
2023/01/16 12:38:32;;;;;;;0.10;0.10;;;4.60;99.90;;;;;;5059530;28;20052;-67
2023/01/16 12:44:15;;;;;;;0.10;0.10;;;4.60;99.90;;;;;;5026081;28;20110;-68
2023/01/16 12:47:04;;;;;;;0.30;0.30;;;4.60;99.90;;;;;;5043735;28;20127;-67
2023/01/16 12:49:56;;;;;;;1.20;1.10;;;4.50;99.90;;;;;;5043915;28;20041;-67
2023/01/16 12:52:42;;;;;;;0.10;0.10;;;4.50;99.90;;;;;;5028323;28;20504;-67
2023/01/16 12:55:39;;;;;;;0.30;0.30;;;4.50;99.90;;;;;;5046191;28;20526;-68
2023/01/16 12:58:22;;;;;;;0.10;0.10;;;4.60;99.90;;;;;;5045024;28;20136;-68
2023/01/16 13:00:53;;;;;;;0.10;0.10;;;4.60;99.90;;;;;;5054773;28;20045;-67
2023/01/16 13:03:44;;;;;;;0.10;0.10;;;4.60;99.90;;;;;;5035138;28;20032;-67
2023/01/16 13:06:15;;;;;;;0.10;0.10;;;4.60;99.90;;;;;;5043229;28;20084;-67
2023/01/16 13:08:59;;;;;;;0.10;0.10;;;4.60;99.90;;;;;;5044215;28;20134;-67
2023/01/16 13:14:20;;;;;;;0.10;0.10;;;4.70;99.90;;;;;;5049317;28;20052;-67
2023/01/16 13:17:11;;;;;;;0.10;0.10;;;4.70;99.90;;;;;;5064164;28;20055;-67
2023/01/16 13:19:40;;;;;;;0.10;0.10;;;4.70;99.90;;;;;;5044074;28;20072;-67
2023/01/16 13:22:19;;;;;;;0.10;0.10;;;4.70;99.90;;;;;;5063208;28;20434;-67
2023/01/16 13:25:02;;;;;;;0.10;0.10;;;4.70;99.90;;;;;;5061847;28;20461;-67
2023/01/16 13:27:57;;;;;;;0.10;0.10;;;4.70;99.90;;;;;;5043106;28;20095;-67
2023/01/16 13:30:23;;;;;;;0.10;0.10;;;4.70;99.90;;;;;;5051120;28;20045;-67
2023/01/16 13:33:02;;;;;;;0.10;0.10;;;4.80;99.90;;;;;;5065923;28;20032;-68
2023/01/16 13:35:33;;;;;;;0.10;0.10;;;4.80;99.90;;;;;;5065317;28;20048;-67
2023/01/16 13:38:04;;;;;;;0.20;0.20;;;4.80;99.90;;;;;;5066456;28;20040;-68
2023/01/16 13:40:50;;;;;;;1.20;1.10;;;4.80;99.90;;;;;;5042354;28;20098;-68
2023/01/16 13:46:07;;;;;;;0.40;0.40;;;4.90;99.90;;;;;;5041807;28;20064;-67
2023/01/16 13:48:36;;;;;;;0.20;0.20;;;4.90;99.90;;;;;;5047089;28;20847;-67
2023/01/16 13:51:08;;;;;;;0.10;0.10;;;4.90;99.90;;;;;;5049282;28;20048;-67
2023/01/16 13:53:36;;;;;;;0.73;0.73;;;5.00;99.90;;;;;;5066909;28;20116;-68
2023/01/16 13:56:06;;;;;;;0.10;0.10;;;5.00;99.90;;;;;;5046810;28;20044;-68
2023/01/16 13:58:36;;;;;;;4.05;0.85;;;5.00;99.90;;;;;;5066318;28;20546;-67
2023/01/16 14:01:04;;;;;;;0.10;0.10;;;5.00;99.90;;;;;;5050114;28;20072;-68
2023/01/16 14:03:34;;;;;;;0.10;0.10;;;5.00;99.90;;;;;;5055840;28;20391;-68
2023/01/16 14:06:09;;;;;;;0.10;0.10;;;5.00;99.90;;;;;;5065294;28;20040;-68
2023/01/16 14:09:08;;;;;;;0.10;0.10;;;5.10;99.90;;;;;;5063424;28;20060;-68
2023/01/16 14:11:57;;;;;;;0.20;0.20;;;5.00;99.90;;;;;;5046771;28;20681;-68
2023/01/16 14:17:48;;;;;;;0.10;0.10;;;5.00;99.90;;;;;;5044499;28;20084;-68
2023/01/16 14:20:36;;;;;;;0.10;0.10;;;5.10;99.90;;;;;;5044880;28;20083;-69
2023/01/16 14:25:54;;;;;;;0.10;0.10;;;5.10;99.90;;;;;;5053598;28;20050;-68
2023/01/16 14:28:21;;;;;;;0.10;0.10;;;5.00;99.90;;;;;;5053913;28;20051;-68
2023/01/16 14:30:47;;;;;;;0.20;0.20;;;5.00;99.90;;;;;;5060715;28;20055;-68